createdAt,value
2018-09-03T00:01:57.188Z,16.00
2018-09-03T00:04:26.029Z,15.90
2018-09-03T00:06:54.537Z,16.00
2018-09-03T00:09:23.076Z,16.00
2018-09-03T00:11:52.423Z,16.00
2018-09-03T00:14:20.907Z,16.00
2018-09-03T00:16:49.526Z,16.00
2018-09-03T00:19:18.069Z,16.00
2018-09-03T00:21:46.977Z,16.00
2018-09-03T00:24:15.542Z,15.90
2018-09-03T00:26:44.192Z,15.90
2018-09-03T00:29:12.671Z,15.90
2018-09-03T00:31:46.455Z,15.80
2018-09-03T00:34:20.203Z,15.80
2018-09-03T00:36:54.024Z,15.90
2018-09-03T00:39:27.724Z,15.80
2018-09-03T00:42:01.664Z,15.90
2018-09-03T00:44:35.789Z,15.90
2018-09-03T00:47:08.056Z,16.00
2018-09-03T00:49:36.573Z,15.90
2018-09-03T00:52:05.162Z,15.90
2018-09-03T00:54:34.390Z,15.90
2018-09-03T00:57:03.034Z,16.00
2018-09-03T00:59:31.515Z,16.00
2018-09-03T01:02:00.195Z,16.00
2018-09-03T01:04:28.685Z,16.10
2018-09-03T01:06:57.344Z,16.10
2018-09-03T01:09:25.844Z,16.00
2018-09-03T01:11:54.514Z,16.00
2018-09-03T01:14:23.164Z,15.90
2018-09-03T01:16:51.673Z,15.80
2018-09-03T01:19:20.164Z,15.70
2018-09-03T01:21:48.693Z,15.80
2018-09-03T01:24:17.228Z,15.80
2018-09-03T01:26:45.891Z,15.90
2018-09-03T01:29:14.415Z,15.90
2018-09-03T01:31:42.934Z,15.90
2018-09-03T01:34:11.668Z,15.90
2018-09-03T01:36:40.446Z,16.00
2018-09-03T01:39:09.355Z,16.00
2018-09-03T01:41:37.860Z,16.10
2018-09-03T01:44:06.674Z,16.00
2018-09-03T01:46:35.529Z,15.90
2018-09-03T01:49:04.249Z,15.90
2018-09-03T01:51:32.855Z,15.90
2018-09-03T01:54:01.374Z,15.80
2018-09-03T01:56:30.020Z,15.80
2018-09-03T01:58:58.595Z,15.80
2018-09-03T02:01:27.117Z,15.70
2018-09-03T02:03:55.681Z,15.70
2018-09-03T02:06:24.388Z,15.70
2018-09-03T02:08:52.899Z,15.70
2018-09-03T02:11:21.733Z,15.80
2018-09-03T02:13:50.459Z,15.80
2018-09-03T02:16:19.143Z,15.80
2018-09-03T02:18:47.640Z,15.80
2018-09-03T02:21:16.723Z,15.80
2018-09-03T02:23:45.227Z,15.80
2018-09-03T02:26:13.812Z,15.80
2018-09-03T02:28:42.533Z,15.80
2018-09-03T02:31:11.039Z,15.80
2018-09-03T02:33:39.663Z,15.60
2018-09-03T02:36:08.168Z,15.60
2018-09-03T02:38:36.659Z,15.70
2018-09-03T02:41:05.451Z,15.70
2018-09-03T02:43:33.984Z,15.70
2018-09-03T02:46:02.983Z,15.70
2018-09-03T02:48:31.521Z,15.70
2018-09-03T02:51:00.211Z,15.60
2018-09-03T02:53:28.712Z,15.60
2018-09-03T02:55:57.360Z,15.70
2018-09-03T02:58:25.870Z,15.50
2018-09-03T03:00:54.472Z,15.50
2018-09-03T03:03:22.988Z,15.60
2018-09-03T03:05:51.532Z,15.50
2018-09-03T03:08:20.270Z,15.50
2018-09-03T03:10:48.779Z,15.50
2018-09-03T03:13:17.309Z,15.50
2018-09-03T03:15:45.731Z,15.50
2018-09-03T03:18:14.356Z,15.50
2018-09-03T03:20:42.856Z,15.50
2018-09-03T03:23:11.544Z,15.60
2018-09-03T03:25:40.337Z,15.60
2018-09-03T03:28:09.161Z,15.60
2018-09-03T03:30:37.688Z,15.60
2018-09-03T03:33:06.256Z,15.60
2018-09-03T03:35:34.940Z,15.60
2018-09-03T03:38:03.800Z,15.60
2018-09-03T03:40:32.488Z,15.50
2018-09-03T03:43:01.380Z,15.40
2018-09-03T03:45:29.866Z,15.40
2018-09-03T03:47:58.340Z,15.40
2018-09-03T03:50:26.835Z,15.40
2018-09-03T03:52:55.427Z,15.50
2018-09-03T03:55:24.031Z,15.40
2018-09-03T03:57:52.745Z,15.40
2018-09-03T04:00:21.832Z,15.40
2018-09-03T04:02:50.382Z,15.30
2018-09-03T04:05:18.898Z,15.30
2018-09-03T04:07:47.404Z,15.30
2018-09-03T04:10:16.106Z,15.40
2018-09-03T04:12:50.112Z,15.30
2018-09-03T04:15:18.728Z,15.30
2018-09-03T04:17:47.275Z,15.20
2018-09-03T04:20:15.802Z,15.10
2018-09-03T04:22:44.455Z,15.00
2018-09-03T04:25:13.228Z,15.00
2018-09-03T04:27:41.920Z,14.90
2018-09-03T04:30:10.388Z,15.00
2018-09-03T04:32:38.970Z,15.10
2018-09-03T04:35:07.488Z,15.20
2018-09-03T04:37:36.135Z,15.20
2018-09-03T04:40:04.746Z,15.20
2018-09-03T04:42:33.384Z,15.20
2018-09-03T04:45:02.221Z,15.20
2018-09-03T04:47:31.030Z,15.20
2018-09-03T04:49:59.777Z,15.10
2018-09-03T04:52:28.424Z,15.00
2018-09-03T04:54:57.094Z,15.10
2018-09-03T04:57:25.619Z,15.10
2018-09-03T04:59:54.384Z,15.20
2018-09-03T05:02:22.907Z,15.20
2018-09-03T05:04:51.406Z,15.20
2018-09-03T05:07:19.916Z,15.20
2018-09-03T05:09:48.612Z,15.20
2018-09-03T05:12:17.363Z,15.30
2018-09-03T05:14:46.117Z,15.30
2018-09-03T05:17:14.584Z,15.20
2018-09-03T05:19:43.137Z,15.20
2018-09-03T05:22:11.702Z,15.30
2018-09-03T05:24:41.246Z,15.30
2018-09-03T05:27:10.273Z,15.30
2018-09-03T05:29:38.982Z,15.40
2018-09-03T05:32:07.516Z,15.40
2018-09-03T05:34:36.044Z,15.40
2018-09-03T05:37:04.708Z,15.50
2018-09-03T05:39:33.516Z,15.40
2018-09-03T05:42:02.305Z,15.40
2018-09-03T05:44:30.936Z,15.40
2018-09-03T05:46:59.822Z,15.30
2018-09-03T05:49:28.571Z,15.10
2018-09-03T05:51:57.261Z,15.20
2018-09-03T05:54:25.760Z,15.30
2018-09-03T05:56:54.275Z,15.30
2018-09-03T05:59:22.827Z,15.40
2018-09-03T06:01:51.610Z,15.40
2018-09-03T06:04:20.427Z,15.60
2018-09-03T06:06:48.903Z,15.60
2018-09-03T06:09:17.395Z,15.50
2018-09-03T06:11:46.314Z,15.50
2018-09-03T06:14:14.860Z,15.40
2018-09-03T06:16:43.293Z,15.40
2018-09-03T06:19:11.831Z,15.50
2018-09-03T06:21:40.464Z,15.70
2018-09-03T06:24:09.417Z,15.80
2018-09-03T06:26:38.417Z,15.90
2018-09-03T06:29:07.052Z,16.00
2018-09-03T06:31:36.312Z,16.10
2018-09-03T06:34:05.099Z,16.10
2018-09-03T06:36:33.671Z,15.90
2018-09-03T06:39:02.596Z,15.90
2018-09-03T06:41:31.627Z,15.80
2018-09-03T06:44:00.216Z,15.80
2018-09-03T06:46:28.931Z,15.80
2018-09-03T06:48:57.426Z,15.80
2018-09-03T06:51:26.360Z,16.10
2018-09-03T06:53:55.167Z,16.40
2018-09-03T06:56:23.942Z,16.50
2018-09-03T06:58:52.488Z,16.60
2018-09-03T07:01:21.021Z,16.80
2018-09-03T07:03:50.156Z,16.90
2018-09-03T07:06:18.911Z,16.90
2018-09-03T07:08:47.724Z,16.80
2018-09-03T07:11:16.472Z,16.90
2018-09-03T07:13:45.184Z,16.90
2018-09-03T07:16:13.863Z,17.10
2018-09-03T07:18:42.381Z,16.80
2018-09-03T07:21:11.150Z,16.90
2018-09-03T07:23:39.743Z,17.00
2018-09-03T07:26:08.699Z,17.00
2018-09-03T07:28:37.228Z,17.10
2018-09-03T07:31:05.868Z,17.30
2018-09-03T07:33:34.571Z,17.40
2018-09-03T07:36:03.318Z,17.30
2018-09-03T07:38:31.904Z,17.30
2018-09-03T07:41:00.392Z,17.30
2018-09-03T07:43:28.895Z,17.50
2018-09-03T07:45:57.863Z,17.60
2018-09-03T07:48:26.515Z,17.50
2018-09-03T07:50:55.119Z,17.50
2018-09-03T07:53:23.619Z,17.50
2018-09-03T07:55:52.192Z,17.40
2018-09-03T07:58:20.877Z,17.30
2018-09-03T08:00:49.811Z,17.60
2018-09-03T08:03:18.351Z,17.80
2018-09-03T08:05:47.209Z,18.10
2018-09-03T08:08:15.785Z,18.20
2018-09-03T08:10:44.568Z,18.10
2018-09-03T08:13:18.119Z,18.30
2018-09-03T08:15:46.626Z,18.30
2018-09-03T08:18:15.172Z,18.40
2018-09-03T08:20:44.024Z,18.40
2018-09-03T08:23:12.841Z,18.50
2018-09-03T08:25:42.006Z,18.60
2018-09-03T08:28:10.523Z,18.60
2018-09-03T08:30:39.347Z,18.70
2018-09-03T08:33:08.269Z,18.60
2018-09-03T08:35:36.828Z,18.50
2018-09-03T08:38:05.707Z,18.50
2018-09-03T08:40:34.435Z,18.60
2018-09-03T08:43:03.232Z,18.90
2018-09-03T08:45:31.762Z,19.10
2018-09-03T08:48:00.397Z,19.30
2018-09-03T08:50:29.999Z,19.50
2018-09-03T08:52:58.640Z,19.70
2018-09-03T08:55:27.312Z,19.80
2018-09-03T08:57:55.795Z,19.90
2018-09-03T09:00:24.494Z,19.90
2018-09-03T09:02:52.996Z,19.80
2018-09-03T09:05:21.578Z,19.70
2018-09-03T09:07:50.982Z,19.80
2018-09-03T09:10:20.077Z,20.10
2018-09-03T09:12:48.842Z,20.60
2018-09-03T09:15:17.727Z,20.70
2018-09-03T09:17:46.700Z,20.50
2018-09-03T09:20:15.207Z,20.30
2018-09-03T09:22:43.849Z,20.30
2018-09-03T09:25:12.476Z,20.30
2018-09-03T09:27:41.231Z,20.40
2018-09-03T09:30:09.763Z,19.90
2018-09-03T09:32:38.692Z,19.50
2018-09-03T09:35:07.326Z,19.20
2018-09-03T09:37:36.025Z,19.20
2018-09-03T09:40:04.609Z,19.40
2018-09-03T09:42:33.147Z,19.60
2018-09-03T09:45:01.913Z,19.70
2018-09-03T09:47:30.573Z,19.90
2018-09-03T09:49:59.350Z,19.60
2018-09-03T09:52:27.927Z,19.60
2018-09-03T09:54:56.670Z,19.80
2018-09-03T09:57:25.551Z,19.90
2018-09-03T09:59:54.113Z,19.60
2018-09-03T10:02:22.790Z,19.80
2018-09-03T10:04:51.455Z,19.60
2018-09-03T10:07:19.974Z,19.70
2018-09-03T10:09:48.707Z,19.90
2018-09-03T10:12:22.380Z,20.00
2018-09-03T10:14:51.063Z,19.90
2018-09-03T10:17:19.738Z,19.80
2018-09-03T10:19:48.447Z,19.80
2018-09-03T10:22:16.987Z,19.80
2018-09-03T10:24:45.524Z,19.70
2018-09-03T10:27:14.588Z,19.70
2018-09-03T10:29:43.501Z,19.70
2018-09-03T10:32:12.214Z,19.70
2018-09-03T10:34:40.847Z,19.70
2018-09-03T10:37:09.550Z,19.60
2018-09-03T10:39:38.464Z,19.50
2018-09-03T10:42:07.254Z,19.30
2018-09-03T10:44:35.796Z,19.30
2018-09-03T10:47:04.661Z,19.30
2018-09-03T10:49:33.177Z,19.20
2018-09-03T10:52:02.026Z,19.20
2018-09-03T10:54:30.746Z,19.00
2018-09-03T10:56:59.265Z,19.20
2018-09-03T10:59:28.246Z,19.30
2018-09-03T11:01:57.122Z,19.40
2018-09-03T11:04:25.636Z,19.40
2018-09-03T11:06:54.198Z,19.60
2018-09-03T11:09:23.077Z,19.60
2018-09-03T11:11:51.615Z,19.60
2018-09-03T11:14:20.851Z,19.60
2018-09-03T11:16:49.464Z,19.80
2018-09-03T11:19:19.326Z,19.70
2018-09-03T11:21:48.228Z,19.70
2018-09-03T11:24:17.079Z,19.90
2018-09-03T11:26:45.955Z,20.00
2018-09-03T11:29:14.760Z,20.10
2018-09-03T11:31:43.815Z,20.10
2018-09-03T11:34:12.482Z,20.00
2018-09-03T11:36:41.018Z,20.10
2018-09-03T11:39:11.590Z,20.10
2018-09-03T11:41:40.749Z,20.30
2018-09-03T11:44:09.585Z,20.50
2018-09-03T11:46:38.220Z,20.90
2018-09-03T11:49:07.198Z,21.20
2018-09-03T11:51:35.875Z,21.40
2018-09-03T11:54:04.511Z,21.60
2018-09-03T11:56:33.459Z,21.10
2018-09-03T11:59:02.324Z,20.80
2018-09-03T12:01:31.138Z,20.80
2018-09-03T12:03:59.800Z,21.00
2018-09-03T12:06:28.409Z,21.00
2018-09-03T12:08:56.944Z,20.90
2018-09-03T12:11:25.590Z,20.90
2018-09-03T12:13:54.581Z,21.00
2018-09-03T12:16:27.106Z,20.70
2018-09-03T12:18:58.402Z,20.70
2018-09-03T12:21:27.155Z,20.80
2018-09-03T12:23:55.729Z,20.90
2018-09-03T12:26:24.507Z,20.80
2018-09-03T12:28:53.545Z,20.60
2018-09-03T12:31:22.547Z,20.70
2018-09-03T12:33:51.477Z,20.80
2018-09-03T12:36:20.031Z,20.60
2018-09-03T12:38:48.864Z,20.60
2018-09-03T12:41:18.022Z,20.50
2018-09-03T12:43:46.696Z,20.40
2018-09-03T12:46:15.445Z,20.30
2018-09-03T12:48:44.168Z,20.40
2018-09-03T12:51:12.878Z,20.50
2018-09-03T12:53:41.479Z,20.60
2018-09-03T12:56:10.146Z,20.30
2018-09-03T12:58:39.079Z,20.20
2018-09-03T13:01:07.818Z,20.10
2018-09-03T13:03:36.467Z,20.00
2018-09-03T13:06:05.194Z,20.10
2018-09-03T13:08:34.165Z,20.10
2018-09-03T13:11:02.895Z,20.00
2018-09-03T13:13:31.472Z,20.10
2018-09-03T13:16:00.035Z,20.10
2018-09-03T13:18:28.641Z,20.00
2018-09-03T13:20:57.174Z,19.90
2018-09-03T13:23:26.579Z,20.00
2018-09-03T13:25:55.213Z,20.00
2018-09-03T13:28:23.781Z,19.80
2018-09-03T13:30:52.715Z,19.90
2018-09-03T13:33:21.547Z,19.90
2018-09-03T13:35:50.277Z,20.10
2018-09-03T13:38:18.972Z,20.30
2018-09-03T13:40:48.004Z,20.70
2018-09-03T13:43:16.637Z,21.00
2018-09-03T13:45:45.494Z,21.10
2018-09-03T13:48:14.566Z,21.20
2018-09-03T13:50:43.507Z,21.50
2018-09-03T13:53:12.177Z,21.60
2018-09-03T13:55:40.772Z,21.60
2018-09-03T13:58:09.400Z,21.80
2018-09-03T14:00:38.136Z,21.70
2018-09-03T14:03:06.792Z,21.60
2018-09-03T14:05:35.304Z,21.50
2018-09-03T14:08:04.278Z,21.50
2018-09-03T14:10:32.926Z,21.20
2018-09-03T14:13:01.779Z,21.20
2018-09-03T14:15:30.413Z,21.00
2018-09-03T14:17:59.383Z,21.00
2018-09-03T14:20:28.260Z,20.80
2018-09-03T14:22:57.015Z,20.60
2018-09-03T14:25:25.552Z,20.40
2018-09-03T14:27:54.515Z,20.50
2018-09-03T14:30:23.492Z,20.60
2018-09-03T14:32:52.272Z,20.60
2018-09-03T14:35:21.216Z,20.60
2018-09-03T14:37:50.117Z,20.60
2018-09-03T14:40:18.957Z,20.50
2018-09-03T14:42:48.077Z,20.50
2018-09-03T14:45:16.858Z,20.30
2018-09-03T14:47:45.759Z,20.20
2018-09-03T14:50:14.723Z,20.00
2018-09-03T14:52:43.573Z,19.90
2018-09-03T14:55:12.672Z,19.90
2018-09-03T14:57:41.392Z,19.80
2018-09-03T15:00:10.383Z,19.80
2018-09-03T15:02:39.117Z,19.80
2018-09-03T15:05:07.917Z,19.80
2018-09-03T15:07:36.678Z,19.70
2018-09-03T15:10:05.906Z,19.80
2018-09-03T15:12:34.595Z,19.80
2018-09-03T15:15:03.751Z,19.80
2018-09-03T15:17:32.473Z,19.80
2018-09-03T15:20:01.185Z,19.70
2018-09-03T15:22:30.436Z,19.70
2018-09-03T15:24:59.307Z,19.80
2018-09-03T15:27:28.085Z,19.90
2018-09-03T15:29:56.914Z,20.00
2018-09-03T15:32:25.841Z,20.10
2018-09-03T15:34:54.907Z,20.10
2018-09-03T15:37:23.874Z,20.30
2018-09-03T15:39:52.656Z,20.00
2018-09-03T15:42:21.509Z,20.00
2018-09-03T15:44:50.224Z,20.00
2018-09-03T15:47:19.010Z,20.00
2018-09-03T15:49:47.774Z,19.90
2018-09-03T15:52:16.430Z,19.90
2018-09-03T15:54:45.120Z,20.00
2018-09-03T15:57:13.848Z,20.00
2018-09-03T15:59:42.716Z,20.00
2018-09-03T16:02:11.629Z,19.90
2018-09-03T16:04:40.389Z,19.90
2018-09-03T16:07:09.408Z,19.90
2018-09-03T16:09:38.287Z,19.90
2018-09-03T16:12:07.334Z,19.90
2018-09-03T16:14:36.251Z,19.80
2018-09-03T16:17:04.921Z,19.90
2018-09-03T16:19:33.791Z,19.90
2018-09-03T16:22:02.640Z,19.90
2018-09-03T16:24:31.732Z,19.90
2018-09-03T16:27:00.786Z,20.20
2018-09-03T16:29:29.392Z,20.40
2018-09-03T16:31:58.011Z,20.50
2018-09-03T16:34:26.927Z,20.60
2018-09-03T16:36:58.747Z,20.60
2018-09-03T16:39:27.555Z,20.60
2018-09-03T16:41:56.435Z,20.90
2018-09-03T16:44:25.230Z,20.80
2018-09-03T16:46:53.930Z,20.70
2018-09-03T16:49:22.856Z,20.80
2018-09-03T16:51:51.661Z,20.80
2018-09-03T16:54:21.043Z,20.70
2018-09-03T16:56:50.251Z,20.70
2018-09-03T16:59:19.142Z,20.60
2018-09-03T17:01:48.039Z,20.30
2018-09-03T17:04:17.069Z,20.20
2018-09-03T17:06:45.968Z,20.10
2018-09-03T17:09:14.839Z,19.90
2018-09-03T17:11:43.575Z,19.90
2018-09-03T17:14:12.249Z,19.80
2018-09-03T17:16:41.130Z,19.80
2018-09-03T17:19:09.929Z,19.60
2018-09-03T17:21:38.489Z,19.60
2018-09-03T17:24:07.333Z,19.60
2018-09-03T17:26:36.196Z,19.50
2018-09-03T17:29:05.170Z,19.40
2018-09-03T17:31:33.871Z,19.40
2018-09-03T17:34:02.626Z,19.30
2018-09-03T17:36:31.286Z,19.30
2018-09-03T17:38:59.894Z,19.30
2018-09-03T17:41:28.802Z,19.20
2018-09-03T17:43:57.752Z,19.20
2018-09-03T17:46:26.812Z,19.20
2018-09-03T17:48:55.804Z,19.10
2018-09-03T17:51:24.666Z,19.10
2018-09-03T17:53:53.437Z,19.00
2018-09-03T17:56:22.631Z,18.90
2018-09-03T17:58:51.574Z,18.90
2018-09-03T18:01:20.385Z,18.90
2018-09-03T18:03:49.202Z,18.80
2018-09-03T18:06:18.238Z,18.80
2018-09-03T18:08:47.037Z,18.70
2018-09-03T18:11:15.929Z,18.60
2018-09-03T18:13:44.806Z,18.60
2018-09-03T18:16:13.806Z,18.60
2018-09-03T18:18:42.903Z,18.50
2018-09-03T18:21:11.723Z,18.40
2018-09-03T18:23:40.564Z,18.40
2018-09-03T18:26:09.788Z,18.30
2018-09-03T18:28:38.700Z,18.30
2018-09-03T18:31:07.616Z,18.30
2018-09-03T18:33:36.293Z,18.30
2018-09-03T18:36:05.344Z,18.20
2018-09-03T18:38:34.723Z,18.20
2018-09-03T18:41:03.844Z,18.20
2018-09-03T18:43:32.980Z,18.10
2018-09-03T18:46:02.420Z,18.10
2018-09-03T18:48:31.634Z,18.10
2018-09-03T18:51:00.731Z,18.00
2018-09-03T18:53:29.829Z,18.00
2018-09-03T18:55:58.747Z,18.00
2018-09-03T18:58:28.205Z,17.90
2018-09-03T19:00:57.111Z,17.90
2018-09-03T19:03:25.893Z,17.90
2018-09-03T19:05:55.128Z,17.90
2018-09-03T19:08:24.255Z,17.80
2018-09-03T19:10:53.288Z,17.80
2018-09-03T19:13:22.488Z,17.80
2018-09-03T19:15:51.842Z,17.80
2018-09-03T19:18:20.776Z,17.70
2018-09-03T19:20:49.827Z,17.70
2018-09-03T19:23:18.994Z,17.60
2018-09-03T19:25:48.023Z,17.60
2018-09-03T19:28:17.122Z,17.60
2018-09-03T19:30:45.900Z,17.50
2018-09-03T19:33:14.722Z,17.50
2018-09-03T19:35:43.895Z,17.40
2018-09-03T19:38:13.112Z,17.40
2018-09-03T19:40:42.309Z,17.40
2018-09-03T19:43:11.212Z,17.40
2018-09-03T19:45:39.839Z,17.40
2018-09-03T19:48:08.757Z,17.40
2018-09-03T19:50:37.775Z,17.50
2018-09-03T19:53:06.842Z,17.60
2018-09-03T19:55:35.581Z,17.70
2018-09-03T19:58:04.795Z,17.70
2018-09-03T20:00:33.672Z,17.60
2018-09-03T20:03:02.800Z,17.50
2018-09-03T20:05:31.939Z,17.50
2018-09-03T20:08:00.939Z,17.50
2018-09-03T20:10:30.004Z,17.40
2018-09-03T20:12:58.788Z,17.40
2018-09-03T20:15:28.308Z,17.40
2018-09-03T20:17:57.295Z,17.40
2018-09-03T20:20:25.969Z,17.40
2018-09-03T20:22:54.594Z,17.30
2018-09-03T20:25:23.150Z,17.30
2018-09-03T20:27:52.189Z,17.30
2018-09-03T20:30:21.239Z,17.20
2018-09-03T20:32:49.899Z,17.20
2018-09-03T20:35:18.790Z,17.20
2018-09-03T20:37:47.553Z,17.20
2018-09-03T20:40:16.228Z,17.10
2018-09-03T20:42:44.951Z,17.10
2018-09-03T20:45:13.929Z,17.10
2018-09-03T20:47:43.014Z,17.10
2018-09-03T20:50:11.775Z,17.10
2018-09-03T20:52:40.545Z,17.00
2018-09-03T20:55:09.554Z,16.90
2018-09-03T20:57:38.495Z,16.90
2018-09-03T21:00:07.676Z,16.80
2018-09-03T21:02:37.017Z,16.60
2018-09-03T21:05:05.808Z,16.50
2018-09-03T21:07:34.712Z,16.30
2018-09-03T21:10:03.469Z,16.20
2018-09-03T21:12:32.716Z,16.10
2018-09-03T21:15:01.526Z,16.10
2018-09-03T21:17:30.603Z,16.00
2018-09-03T21:19:59.200Z,15.90
2018-09-03T21:22:27.933Z,15.80
2018-09-03T21:24:56.711Z,15.70
2018-09-03T21:27:25.231Z,15.70
2018-09-03T21:29:53.952Z,15.70
2018-09-03T21:32:22.606Z,15.60
2018-09-03T21:34:51.424Z,15.50
2018-09-03T21:37:20.328Z,15.50
2018-09-03T21:39:49.409Z,15.40
2018-09-03T21:42:17.977Z,15.40
2018-09-03T21:44:46.674Z,15.30
2018-09-03T21:47:15.377Z,15.30
2018-09-03T21:49:43.971Z,15.30
2018-09-03T21:52:12.632Z,15.30
2018-09-03T21:54:41.456Z,15.20
2018-09-03T21:57:10.224Z,15.10
2018-09-03T21:59:38.910Z,15.10
2018-09-03T22:02:10.296Z,15.00
2018-09-03T22:04:40.958Z,15.00
2018-09-03T22:07:09.506Z,15.00
2018-09-03T22:09:38.377Z,14.90
2018-09-03T22:12:07.114Z,14.90
2018-09-03T22:14:35.969Z,14.80
2018-09-03T22:17:04.473Z,14.80
2018-09-03T22:19:33.031Z,14.80
2018-09-03T22:22:01.553Z,14.70
2018-09-03T22:24:30.371Z,14.60
2018-09-03T22:26:58.905Z,14.60
2018-09-03T22:29:27.631Z,14.60
2018-09-03T22:31:56.147Z,14.50
2018-09-03T22:34:24.673Z,14.60
2018-09-03T22:36:53.358Z,14.60
2018-09-03T22:39:22.354Z,14.50
2018-09-03T22:41:50.893Z,14.40
2018-09-03T22:44:19.604Z,14.40
2018-09-03T22:46:48.424Z,14.30
2018-09-03T22:49:17.111Z,14.30
2018-09-03T22:51:45.636Z,14.30
2018-09-03T22:54:14.227Z,14.20
2018-09-03T22:56:43.194Z,14.20
2018-09-03T22:59:12.580Z,14.10
2018-09-03T23:01:41.355Z,14.10
2018-09-03T23:04:09.858Z,14.00
2018-09-03T23:06:38.505Z,14.10
2018-09-03T23:09:07.954Z,14.00
2018-09-03T23:11:36.953Z,14.10
2018-09-03T23:14:06.199Z,14.00
2018-09-03T23:16:34.918Z,14.00
2018-09-03T23:19:03.731Z,14.00
2018-09-03T23:21:32.611Z,14.00
2018-09-03T23:24:01.307Z,14.00
2018-09-03T23:26:29.851Z,14.00
2018-09-03T23:28:58.430Z,14.10
2018-09-03T23:31:26.950Z,14.10
2018-09-03T23:33:55.911Z,14.10
2018-09-03T23:36:24.555Z,14.10
2018-09-03T23:38:53.375Z,14.20
2018-09-03T23:41:21.994Z,14.20
2018-09-03T23:43:50.743Z,14.10
2018-09-03T23:46:19.225Z,14.20
2018-09-03T23:48:47.985Z,14.20
2018-09-03T23:51:16.613Z,14.30
2018-09-03T23:53:45.082Z,14.40
2018-09-03T23:56:13.896Z,14.40
2018-09-03T23:58:42.492Z,14.50
